Time;durP1;ratioP1;P1;durP2;ratioP2;P2;SDS_P1;SDS_P2;PMS_P1;PMS_P2;Temp;Humidity;BMP_temperature;BMP_pressure;BME280_temperature;BME280_humidity;BME280_pressure;Samples;Min_cycle;Max_cycle;Signal;HPM_P1;HPM_P2
2022/09/15 00:02:14;;;;;;;1.58;1.48;;;;;;;;;;12500139;28;20052;-75
2022/09/15 00:08:15;;;;;;;;;;;;;;;;;;12466506;28;20041;-74
2022/09/15 00:14:17;;;;;;;1.48;1.30;;;;;;;;;;12481994;28;20330;-74
2022/09/15 00:20:20;;;;;;;2.13;1.77;;;;;;;;;;12500141;28;20492;-73
2022/09/15 00:26:23;;;;;;;2.25;1.40;;;;;;;;;;12481563;28;20048;-74
2022/09/15 00:32:25;;;;;;;1.63;1.52;;;;;;;;;;12464742;28;20045;-74
2022/09/15 00:38:27;;;;;;;1.58;1.48;;;;;;;;;;12498740;28;20383;-74
2022/09/15 00:44:35;;;;;;;1.42;1.33;;;;;;;;;;12481992;28;20399;-74
2022/09/15 00:50:37;;;;;;;2.10;1.90;;;;;;;;;;12497687;28;20050;-74
2022/09/15 00:56:41;;;;;;;2.08;1.95;;;;;;;;;;12497874;28;20037;-74
2022/09/15 01:02:44;;;;;;;2.28;1.92;;;;;;;;;;12500177;28;20049;-74
2022/09/15 01:08:50;;;;;;;1.80;1.70;;;;;;;;;;12480711;28;20068;-75
2022/09/15 01:14:53;;;;;;;2.33;1.75;;;;;;;;;;12496382;28;20424;-74
2022/09/15 01:20:58;;;;;;;3.53;2.50;;;;;;;;;;12479059;28;20399;-74
2022/09/15 01:27:06;;;;;;;2.75;2.55;;;;;;;;;;12479102;28;20033;-73
2022/09/15 01:33:23;;;;;;;2.92;2.67;;;;;;;;;;12495865;28;20068;-73
2022/09/15 01:39:26;;;;;;;2.92;2.47;;;;;;;;;;12478722;28;20045;-73
2022/09/15 01:45:33;;;;;;;2.28;2.08;;;;;;;;;;12478544;28;20045;-75
2022/09/15 01:51:36;;;;;;;2.28;2.08;;;;;;;;;;12495054;28;20056;-74
2022/09/15 01:57:38;;;;;;;3.22;2.00;;;;;;;;;;12478127;28;20484;-74
2022/09/15 02:03:43;;;;;;;2.42;2.22;;;;;;;;;;12477119;28;20392;-74
2022/09/15 02:09:50;;;;;;;2.10;1.85;;;;;;;;;;12494813;28;20052;-74
2022/09/15 02:15:53;;;;;;;3.45;2.92;;;;;;;;;;12494192;28;20040;-75
2022/09/15 02:22:01;;;;;;;4.15;3.67;;;;;;;;;;12476716;28;20041;-73
2022/09/15 02:28:05;;;;;;;5.63;4.00;;;;;;;;;;12494123;28;20049;-75
2022/09/15 02:34:18;;;;;;;3.42;3.13;;;;;;;;;;12494210;28;20037;-74
2022/09/15 02:40:21;;;;;;;3.97;3.10;;;;;;;;;;12494676;28;20033;-73
2022/09/15 02:46:23;;;;;;;5.05;3.55;;;;;;;;;;12493913;28;20048;-73
2022/09/15 02:52:25;;;;;;;;;;;;;;;;;;12494225;28;20048;-73
2022/09/15 02:58:26;;;;;;;6.05;5.55;;;;;;;;;;12493914;28;19909;-74
2022/09/15 03:04:28;;;;;;;5.75;5.20;;;;;;;;;;12475601;28;20060;-73
2022/09/15 03:10:31;;;;;;;5.90;4.90;;;;;;;;;;12493053;28;20057;-74
2022/09/15 03:16:33;;;;;;;5.95;5.35;;;;;;;;;;12475979;28;20041;-74
2022/09/15 03:22:35;;;;;;;5.38;4.97;;;;;;;;;;12476037;28;20029;-74
2022/09/15 03:28:38;;;;;;;5.10;4.65;;;;;;;;;;12463001;28;20048;-75
2022/09/15 03:34:39;;;;;;;4.70;4.30;;;;;;;;;;12501791;28;20045;-73
2022/09/15 03:40:42;;;;;;;4.75;4.43;;;;;;;;;;12488088;28;20031;-74
2022/09/15 03:46:44;;;;;;;5.38;4.88;;;;;;;;;;12508806;28;20037;-74
2022/09/15 03:52:46;;;;;;;4.43;4.13;;;;;;;;;;12500661;28;20057;-74
2022/09/15 03:58:48;;;;;;;3.95;3.65;;;;;;;;;;12483282;28;20041;-74
2022/09/15 04:04:49;;;;;;;5.40;4.38;;;;;;;;;;12482733;28;20040;-74
2022/09/15 04:10:53;;;;;;;3.92;3.63;;;;;;;;;;12482174;28;20488;-74
2022/09/15 04:16:55;;;;;;;5.20;4.80;;;;;;;;;;12498178;28;20045;-73
2022/09/15 04:22:57;;;;;;;;;;;;;;;;;;12498261;28;20029;-74
2022/09/15 04:28:59;;;;;;;5.17;4.77;;;;;;;;;;12496443;28;19917;-74
2022/09/15 04:35:01;;;;;;;5.60;5.10;;;;;;;;;;12479266;28;20399;-73
2022/09/15 04:41:04;;;;;;;5.22;4.72;;;;;;;;;;12497962;28;20149;-73
2022/09/15 04:47:06;;;;;;;5.10;4.70;;;;;;;;;;12497739;28;20407;-73
2022/09/15 04:53:08;;;;;;;5.20;4.80;;;;;;;;;;12497596;28;20049;-73
2022/09/15 04:59:13;;;;;;;5.50;5.10;;;;;;;;;;12496937;28;20541;-73
2022/09/15 05:05:15;;;;;;;4.88;4.45;;;;;;;;;;12496483;28;20033;-74
2022/09/15 05:11:17;;;;;;;4.45;4.05;;;;;;;;;;12462689;28;20487;-73
2022/09/15 05:17:19;;;;;;;;;;;;;;;;;;12479119;28;20034;-74
2022/09/15 05:23:21;;;;;;;4.33;4.03;;;;;;;;;;12496115;28;19916;-74
2022/09/15 05:29:22;;;;;;;5.47;4.97;;;;;;;;;;12461848;28;20045;-74
2022/09/15 05:35:24;;;;;;;5.53;5.03;;;;;;;;;;12495332;28;20037;-74
2022/09/15 05:41:27;;;;;;;7.78;7.07;;;;;;;;;;12515887;28;20066;-74
2022/09/15 05:47:29;;;;;;;;;;;;;;;;;;12500667;28;20049;-74
2022/09/15 05:53:31;;;;;;;7.80;7.17;;;;;;;;;;12515099;28;20290;-74
2022/09/15 05:59:34;;;;;;;6.93;6.32;;;;;;;;;;12491159;28;20510;-74
2022/09/15 06:05:36;;;;;;;4.28;3.97;;;;;;;;;;12507018;28;21448;-74
2022/09/15 06:11:38;;;;;;;8.18;7.40;;;;;;;;;;12490261;28;20050;-73
2022/09/15 06:17:40;;;;;;;8.48;7.78;;;;;;;;;;12488317;28;20475;-74
2022/09/15 06:23:42;;;;;;;9.45;8.45;;;;;;;;;;12520628;28;20028;-74
2022/09/15 06:29:44;;;;;;;10.70;9.70;;;;;;;;;;12493801;28;20049;-75
2022/09/15 06:35:45;;;;;;;12.50;11.30;;;;;;;;;;12504507;28;20105;-75
2022/09/15 06:41:48;;;;;;;9.48;8.57;;;;;;;;;;12508948;28;20067;-75
2022/09/15 06:47:52;;;;;;;6.75;6.15;;;;;;;;;;12495770;28;20079;-75
2022/09/15 06:53:54;;;;;;;4.82;4.40;;;;;;;;;;12488766;28;20065;-75
2022/09/15 06:59:56;;;;;;;3.88;3.55;;;;;;;;;;12497446;28;20074;-75
2022/09/15 07:05:57;;;;;;;4.10;3.70;;;;;;;;;;12498362;28;20727;-75
2022/09/15 07:11:59;;;;;;;5.40;4.50;;;;;;;;;;12540402;28;20530;-75
2022/09/15 07:18:01;;;;;;;3.30;2.92;;;;;;;;;;12514804;28;20072;-75
2022/09/15 07:24:03;;;;;;;2.90;2.70;;;;;;;;;;12532010;28;20068;-75
2022/09/15 07:30:07;;;;;;;3.28;2.97;;;;;;;;;;12533151;28;20196;-76
2022/09/15 07:36:09;;;;;;;3.30;2.97;;;;;;;;;;12525010;28;20071;-76
2022/09/15 07:42:11;;;;;;;3.50;2.70;;;;;;;;;;12508196;28;20068;-76
2022/09/15 07:48:12;;;;;;;3.80;3.50;;;;;;;;;;12531657;28;20167;-76
2022/09/15 07:54:14;;;;;;;3.78;3.42;;;;;;;;;;12508188;28;20523;-76
2022/09/15 08:00:16;;;;;;;;;;;;;;;;;;12528399;28;20561;-75
2022/09/15 08:06:18;;;;;;;4.78;4.38;;;;;;;;;;12529744;28;20483;-76
2022/09/15 08:12:20;;;;;;;4.82;4.43;;;;;;;;;;12529100;28;20098;-75
2022/09/15 08:18:22;;;;;;;6.82;6.25;;;;;;;;;;12518211;28;20049;-75
2022/09/15 08:24:24;;;;;;;4.43;4.10;;;;;;;;;;12512018;28;20124;-76
2022/09/15 08:30:26;;;;;;;4.07;3.78;;;;;;;;;;12500396;28;20030;-75
2022/09/15 08:36:27;;;;;;;6.03;5.43;;;;;;;;;;12487453;28;20033;-76
2022/09/15 08:42:30;;;;;;;5.93;5.38;;;;;;;;;;12505332;28;20362;-75
2022/09/15 08:48:43;;;;;;;3.30;2.85;;;;;;;;;;12508090;28;20052;-75
2022/09/15 08:54:45;;;;;;;6.72;6.13;;;;;;;;;;12491676;28;20037;-75
2022/09/15 09:00:51;;;;;;;4.50;3.95;;;;;;;;;;12503543;28;20032;-75
2022/09/15 09:07:13;;;;;;;4.72;4.00;;;;;;;;;;12498951;28;20029;-74
2022/09/15 09:13:27;;;;;;;5.15;4.55;;;;;;;;;;12515604;28;20053;-74
2022/09/15 09:19:44;;;;;;;6.47;4.10;;;;;;;;;;12508541;28;20029;-75
2022/09/15 09:25:46;;;;;;;2.78;2.58;;;;;;;;;;12508493;28;20184;-74
2022/09/15 09:31:48;;;;;;;;;;;;;;;;;;12505276;28;20045;-74
2022/09/15 09:37:50;;;;;;;3.95;2.80;;;;;;;;;;12516465;28;20402;-74
2022/09/15 09:43:53;;;;;;;5.35;3.40;;;;;;;;;;12502820;28;20037;-74
2022/09/15 09:49:55;;;;;;;5.45;4.90;;;;;;;;;;12506879;28;20044;-74
2022/09/15 09:56:15;;;;;;;5.00;3.33;;;;;;;;;;12529265;28;20033;-74
2022/09/15 10:02:22;;;;;;;5.82;4.00;;;;;;;;;;12498856;28;20037;-73
2022/09/15 10:08:23;;;;;;;5.97;2.85;;;;;;;;;;12501302;28;20375;-74
2022/09/15 10:14:25;;;;;;;;;;;;;;;;;;12496287;28;20033;-74
2022/09/15 10:20:31;;;;;;;4.38;3.25;;;;;;;;;;12507827;28;19909;-73
2022/09/15 10:26:34;;;;;;;3.92;2.65;;;;;;;;;;12488215;28;20025;-73
2022/09/15 10:32:36;;;;;;;5.28;3.10;;;;;;;;;;12484981;28;20065;-74
2022/09/15 10:38:37;;;;;;;5.05;2.65;;;;;;;;;;12512890;28;20364;-74
2022/09/15 10:44:59;;;;;;;6.15;2.55;;;;;;;;;;12485878;28;20037;-75
2022/09/15 10:51:01;;;;;;;3.25;2.10;;;;;;;;;;12485660;28;20045;-76
2022/09/15 10:57:10;;;;;;;7.55;2.30;;;;;;;;;;12469410;28;20033;-74
2022/09/15 11:03:30;;;;;;;3.95;1.95;;;;;;;;;;12502972;28;20041;-74
2022/09/15 11:09:42;;;;;;;4.95;2.03;;;;;;;;;;12468528;28;20058;-74
2022/09/15 11:15:47;;;;;;;5.00;1.92;;;;;;;;;;12502462;28;20042;-74
2022/09/15 11:21:54;;;;;;;3.83;1.75;;;;;;;;;;12502265;28;20033;-75
2022/09/15 11:28:16;;;;;;;2.47;1.58;;;;;;;;;;12483729;28;20037;-75
2022/09/15 11:34:24;;;;;;;3.67;1.60;;;;;;;;;;12483510;28;20041;-75
2022/09/15 11:40:33;;;;;;;5.32;1.30;;;;;;;;;;12501816;28;20030;-73
2022/09/15 11:46:56;;;;;;;5.65;1.60;;;;;;;;;;12483115;28;20057;-74
2022/09/15 11:53:03;;;;;;;4.18;1.50;;;;;;;;;;12500468;28;20184;-74
2022/09/15 11:59:04;;;;;;;3.80;1.50;;;;;;;;;;12500701;28;20033;-74
2022/09/15 12:05:09;;;;;;;3.78;1.38;;;;;;;;;;12482023;28;20038;-74
2022/09/15 12:11:16;;;;;;;3.58;1.20;;;;;;;;;;12499744;28;20045;-74
2022/09/15 12:17:36;;;;;;;1.17;0.68;;;;;;;;;;12481945;28;20041;-75
2022/09/15 12:23:38;;;;;;;3.67;1.30;;;;;;;;;;12499341;28;20044;-75
2022/09/15 12:52:16;;;;;;;3.08;1.40;;;;;;;;;;12635454;27;20794;-79
2022/09/15 12:58:37;;;;;;;5.07;1.73;;;;;;;;;;12635848;28;20560;-80
2022/09/15 13:04:42;;;;;;;2.87;1.30;;;;;;;;;;12616761;28;20036;-80
2022/09/15 13:11:00;;;;;;;4.20;1.88;;;;;;;;;;12633710;28;20033;-80
2022/09/15 13:17:15;;;;;;;6.00;2.03;;;;;;;;;;12635073;28;20055;-80
2022/09/15 13:23:22;;;;;;;6.90;1.70;;;;;;;;;;12633454;28;20500;-80
2022/09/15 13:29:24;;;;;;;3.42;1.63;;;;;;;;;;12632584;28;20024;-80
2022/09/15 13:35:38;;;;;;;5.68;1.85;;;;;;;;;;12616212;28;20028;-80
2022/09/15 13:41:41;;;;;;;6.07;2.10;;;;;;;;;;12615726;28;20055;-80
2022/09/15 13:47:51;;;;;;;4.63;1.75;;;;;;;;;;12630151;28;20060;-80
2022/09/15 13:54:05;;;;;;;4.60;1.80;;;;;;;;;;12599946;28;20039;-80
2022/09/15 14:00:14;;;;;;;3.92;1.65;;;;;;;;;;12599166;28;20048;-79
2022/09/15 14:06:20;;;;;;;2.30;1.30;;;;;;;;;;12597916;28;20036;-80
2022/09/15 14:12:22;;;;;;;4.78;1.73;;;;;;;;;;12597778;28;20484;-80
2022/09/15 14:18:24;;;;;;;6.57;1.70;;;;;;;;;;12598405;28;20050;-80
2022/09/15 14:24:28;;;;;;;4.30;1.40;;;;;;;;;;12597962;28;20417;-80
2022/09/15 14:30:30;;;;;;;7.15;1.90;;;;;;;;;;12598616;28;20043;-80
2022/09/15 14:36:33;;;;;;;4.63;1.73;;;;;;;;;;12596005;28;20040;-79
2022/09/15 14:42:39;;;;;;;6.85;1.85;;;;;;;;;;12597131;28;20075;-78
2022/09/15 14:48:41;;;;;;;3.83;1.55;;;;;;;;;;12594078;28;20063;-79
2022/09/15 14:54:43;;;;;;;5.32;1.65;;;;;;;;;;12592379;28;20033;-79
2022/09/15 15:00:51;;;;;;;5.18;1.67;;;;;;;;;;12593361;28;20040;-80
2022/09/15 15:07:07;;;;;;;7.07;1.67;;;;;;;;;;12595665;28;20051;-80
2022/09/15 15:13:14;;;;;;;3.83;1.40;;;;;;;;;;12596183;28;20032;-80
2022/09/15 15:19:32;;;;;;;5.45;1.75;;;;;;;;;;12594843;28;20238;-80
2022/09/15 15:25:36;;;;;;;5.80;2.40;;;;;;;;;;12594896;28;20083;-80
2022/09/15 15:31:39;;;;;;;6.97;1.98;;;;;;;;;;12595232;28;20476;-79
2022/09/15 15:37:40;;;;;;;7.45;2.50;;;;;;;;;;12595216;28;20047;-80
2022/09/15 15:43:54;;;;;;;7.30;1.80;;;;;;;;;;12594462;28;20393;-80
2022/09/15 15:49:59;;;;;;;7.07;2.00;;;;;;;;;;12592658;28;20056;-80
2022/09/15 15:56:00;;;;;;;7.05;1.98;;;;;;;;;;12592340;28;20035;-80
2022/09/15 16:02:02;;;;;;;3.60;1.45;;;;;;;;;;12592704;28;20056;-80
2022/09/15 16:08:06;;;;;;;3.35;1.42;;;;;;;;;;12593555;28;20036;-80
2022/09/15 16:14:11;;;;;;;5.93;1.70;;;;;;;;;;12591655;28;20477;-80
2022/09/15 16:20:14;;;;;;;7.43;1.90;;;;;;;;;;12594283;28;20492;-80
2022/09/15 16:26:18;;;;;;;5.32;1.77;;;;;;;;;;12593086;28;20041;-80
2022/09/15 16:32:20;;;;;;;4.72;1.30;;;;;;;;;;12592605;28;20039;-80
2022/09/15 16:38:24;;;;;;;5.63;1.50;;;;;;;;;;12592599;28;20412;-80
2022/09/15 16:44:26;;;;;;;3.58;1.10;;;;;;;;;;12592742;28;20037;-80
2022/09/15 16:50:28;;;;;;;3.42;1.00;;;;;;;;;;12591126;28;20052;-80
2022/09/15 16:56:30;;;;;;;3.10;1.13;;;;;;;;;;12591236;28;20033;-80
2022/09/15 17:02:33;;;;;;;2.97;1.00;;;;;;;;;;12591024;28;20043;-81
2022/09/15 17:08:35;;;;;;;3.08;0.98;;;;;;;;;;12591437;28;20393;-81
2022/09/15 17:14:36;;;;;;;3.33;0.95;;;;;;;;;;12591861;28;20032;-80
2022/09/15 17:20:38;;;;;;;2.20;0.63;;;;;;;;;;12592876;28;20040;-81
2022/09/15 17:26:40;;;;;;;3.88;0.80;;;;;;;;;;12598191;28;20040;-81
2022/09/15 17:32:42;;;;;;;1.45;0.70;;;;;;;;;;12599277;28;20032;-79
2022/09/15 17:38:44;;;;;;;5.68;1.17;;;;;;;;;;12601033;28;20404;-79
2022/09/15 17:44:46;;;;;;;2.88;1.02;;;;;;;;;;12598329;28;20039;-79
2022/09/15 17:50:48;;;;;;;2.33;1.00;;;;;;;;;;12599853;28;20045;-80
2022/09/15 17:56:50;;;;;;;2.03;0.90;;;;;;;;;;12597871;28;20055;-79
2022/09/15 18:02:52;;;;;;;;;;;;;;;;;;12599973;28;20473;-80
2022/09/15 18:08:53;;;;;;;2.80;1.20;;;;;;;;;;12597584;28;19916;-80
2022/09/15 18:14:55;;;;;;;;;;;;;;;;;;12598147;28;20281;-80
2022/09/15 18:20:57;;;;;;;3.50;1.10;;;;;;;;;;12597587;28;19920;-80
2022/09/15 18:26:59;;;;;;;4.88;1.65;;;;;;;;;;12596903;28;20037;-80
2022/09/15 18:33:00;;;;;;;3.33;1.20;;;;;;;;;;12597330;28;20503;-80
2022/09/15 18:39:03;;;;;;;5.43;1.63;;;;;;;;;;12597514;28;20044;-81
2022/09/15 18:45:08;;;;;;;5.22;1.42;;;;;;;;;;12596791;28;20043;-81
2022/09/15 18:51:10;;;;;;;3.45;1.02;;;;;;;;;;12596280;28;20268;-78
2022/09/15 18:57:12;;;;;;;2.08;1.05;;;;;;;;;;12596699;28;20043;-78
2022/09/15 19:03:13;;;;;;;3.92;1.95;;;;;;;;;;12595659;28;20051;-79
2022/09/15 19:09:15;;;;;;;1.92;0.80;;;;;;;;;;12594994;28;20036;-79
2022/09/15 19:15:17;;;;;;;5.30;1.95;;;;;;;;;;12594623;28;20029;-79
2022/09/15 19:21:19;;;;;;;3.60;1.67;;;;;;;;;;12594559;28;20078;-79
2022/09/15 19:27:21;;;;;;;;;;;;;;;;;;12577669;28;20046;-79
2022/09/15 19:33:23;;;;;;;2.70;1.10;;;;;;;;;;12605646;28;19923;-80
2022/09/15 19:39:24;;;;;;;;;;;;;;;;;;12616111;28;20040;-80
2022/09/15 19:45:26;;;;;;;4.87;1.67;;;;;;;;;;12600740;28;19912;-80
2022/09/15 19:51:30;;;;;;;7.45;2.50;;;;;;;;;;12594237;28;20056;-80
2022/09/15 19:57:32;;;;;;;4.47;2.10;;;;;;;;;;12592767;28;20041;-80
2022/09/15 20:03:33;;;;;;;;;;;;;;;;;;12593194;28;20044;-80
2022/09/15 20:09:35;;;;;;;4.30;2.10;;;;;;;;;;12593442;28;19932;-80
2022/09/15 20:15:37;;;;;;;6.00;2.28;;;;;;;;;;12592148;28;20032;-80
2022/09/15 20:21:39;;;;;;;3.53;1.67;;;;;;;;;;12594673;28;20045;-80
2022/09/15 20:27:42;;;;;;;4.95;1.45;;;;;;;;;;12593693;28;20033;-80
2022/09/15 20:33:46;;;;;;;4.00;1.90;;;;;;;;;;12593433;28;20032;-79
2022/09/15 20:39:50;;;;;;;4.68;1.92;;;;;;;;;;12591723;28;20055;-79
2022/09/15 20:45:55;;;;;;;2.95;1.40;;;;;;;;;;12590834;28;20370;-79
2022/09/15 20:51:57;;;;;;;3.53;1.90;;;;;;;;;;12591885;28;20088;-79
2022/09/15 20:57:59;;;;;;;4.82;2.00;;;;;;;;;;12591097;28;20045;-79
2022/09/15 21:04:01;;;;;;;4.32;1.65;;;;;;;;;;12601797;28;20039;-80
2022/09/15 21:10:02;;;;;;;3.25;1.50;;;;;;;;;;12601739;28;20107;-80
2022/09/15 21:16:04;;;;;;;;;;;;;;;;;;12602341;28;20036;-80
2022/09/15 21:22:06;;;;;;;3.93;1.80;;;;;;;;;;12599970;28;19916;-80
2022/09/15 21:28:08;;;;;;;3.08;1.73;;;;;;;;;;12601314;28;20043;-80
2022/09/15 21:34:09;;;;;;;3.63;1.65;;;;;;;;;;12600031;28;20033;-80
2022/09/15 21:40:11;;;;;;;3.90;2.30;;;;;;;;;;12600192;28;20044;-80
2022/09/15 21:46:15;;;;;;;4.20;2.35;;;;;;;;;;12598804;28;20033;-80
2022/09/15 21:52:17;;;;;;;4.50;2.17;;;;;;;;;;12599144;28;20043;-80
2022/09/15 21:58:20;;;;;;;4.72;2.05;;;;;;;;;;12598587;28;20033;-80
2022/09/15 22:04:22;;;;;;;4.10;1.80;;;;;;;;;;12599664;28;20040;-79
2022/09/15 22:10:25;;;;;;;3.45;1.83;;;;;;;;;;12597650;28;20036;-79
2022/09/15 22:16:26;;;;;;;5.70;2.72;;;;;;;;;;12598798;28;20056;-79
2022/09/15 22:22:31;;;;;;;4.97;2.17;;;;;;;;;;12598646;28;20040;-79
2022/09/15 22:28:33;;;;;;;4.97;2.13;;;;;;;;;;12598428;28;20033;-79
2022/09/15 22:34:35;;;;;;;4.90;2.35;;;;;;;;;;12596582;28;20040;-79
2022/09/15 22:40:36;;;;;;;3.45;2.10;;;;;;;;;;12596292;28;20052;-79
2022/09/15 22:46:38;;;;;;;6.47;2.60;;;;;;;;;;12595813;28;20086;-78
2022/09/15 22:52:40;;;;;;;3.50;2.25;;;;;;;;;;12595947;28;20024;-79
2022/09/15 22:58:43;;;;;;;4.95;1.90;;;;;;;;;;12596562;28;20520;-79
2022/09/15 23:04:44;;;;;;;2.10;1.85;;;;;;;;;;12597743;28;20029;-80
2022/09/15 23:10:46;;;;;;;3.30;2.00;;;;;;;;;;12596238;28;20416;-80
2022/09/15 23:16:48;;;;;;;3.17;1.83;;;;;;;;;;12594513;28;20051;-80
2022/09/15 23:22:51;;;;;;;3.05;1.63;;;;;;;;;;12591195;28;20037;-80
2022/09/15 23:28:54;;;;;;;3.80;2.10;;;;;;;;;;12591549;28;20047;-80
2022/09/15 23:34:55;;;;;;;;;;;;;;;;;;12591472;28;20033;-80
2022/09/15 23:40:57;;;;;;;1.77;1.65;;;;;;;;;;12591848;28;19916;-80
2022/09/15 23:46:59;;;;;;;;;;;;;;;;;;12590995;28;20063;-80
2022/09/15 23:53:01;;;;;;;1.47;1.27;;;;;;;;;;12591668;28;19915;-80
2022/09/15 23:59:03;;;;;;;1.20;1.10;;;;;;;;;;12590369;28;20045;-80
